메인 페이지
METAR-TAF:

METAR-TAF

공항 :

이르쿠츠크, 러시아

이르쿠츠크 국제공항

위도: 52-16N, 경도: 104-19E, 고도: 513m

현재 날씨관측

예보는 37분 전, 00:30시(UTC)에 발표되었습니다.
2kt
온도 -24°C
습도 76%
기압 1033 hPa
시정 10km 이상
고도 4000ft 상공 구름 보통

METAR: UIII 180030Z 19001MPS 9999 SCT040 M24/M27 Q1033 R30/490240 NOSIG RMK QFE729/0972

시각: 09:07 (01:07 UTC)

예보

예보는 2 시간 7분 전, 23:00시(UTC)에 발표되었습니다.
예보 대상 시간: 18일 00시부터 18일 24시까지 (UTC)
서북서6kt
시정: 5000m
고도 2000ft 상공 구름 보통
약한눈, 연기
일시적
18일 00시부터 18일 15시까지 (UTC)
시정: 2100m
약한눈, 연기

TAF: UIII 172300Z 1800/1824 30003MPS 5000 -SN FU SCT020 TEMPO 1800/1815 2100 -SN FU

4,000개 이상의 공항 관측 자료 및 예보 (METAR 및 TAF 보고).

지도상에서 검색 가능한 기상관측소가 노란 점과 빨간 점으로 표시되어 있습니다.

기상관측소 명을 보려면 표시 위로 마우스를 이동하세요.

날씨 관측과 예보를 보려면 클릭하세요.

지도 변경 : 확대하려면 엑스 표시가 있는 녹색 버튼, 축소하려면 빼기 표시가 있는 녹색 버튼, 다음 페이지의 지도를 보려면 녹색 화살표를 클릭하세요.


METAR-TAF: